Terminal Aerodrome Forecast
Issued by NWS Cleveland, OH

Home | Current Version | Previous Version | Text Only | Print | Product List | Glossary Off
Versions: 1 2 3 4 5 6 7 8 9 10 11 12 13 14 15 16 17 18 19 20 21 22 23 24 25 26 27 28 29 30 31 32

000
FTUS41 KCLE 200800 AAB
TAFERI
TAF AMD
KERI 200837Z 2009/2106 22018G28KT 4SM -SHSN OVC030
      TEMPO 2009/2013 1SM -SHSN OVC015
     FM201600 24015G30KT 6SM -SHSN OVC050
     FM202300 27012G20KT 3/4SM -SHSN OVC012=

USA.gov is the U.S. government's official web portal to all federal, state and local government web resources and services.